createdAt,value
2023-05-08T00:00:40.313Z,0.00
2023-05-08T00:01:40.442Z,0.00
2023-05-08T00:02:40.717Z,0.00
2023-05-08T00:03:40.953Z,0.00
2023-05-08T00:04:41.053Z,0.00
2023-05-08T00:05:41.162Z,0.00
2023-05-08T00:06:41.335Z,0.00
2023-05-08T00:07:41.507Z,0.00
2023-05-08T00:08:41.672Z,0.00
2023-05-08T00:09:41.866Z,0.00
2023-05-08T00:10:42.025Z,0.00
2023-05-08T00:11:42.197Z,0.00
2023-05-08T00:12:42.400Z,0.00
2023-05-08T00:13:42.556Z,0.00
2023-05-08T00:14:42.758Z,0.00
2023-05-08T00:15:42.909Z,0.00
2023-05-08T00:16:43.128Z,0.00
2023-05-08T00:17:43.286Z,0.00
2023-05-08T00:18:43.442Z,0.00
2023-05-08T00:19:43.615Z,0.00
2023-05-08T00:20:43.827Z,0.00
2023-05-08T00:21:43.966Z,0.00
2023-05-08T00:22:44.132Z,0.00
2023-05-08T00:23:44.328Z,0.00
2023-05-08T00:24:44.486Z,0.00
2023-05-08T00:25:44.653Z,0.00
2023-05-08T00:26:44.818Z,0.00
2023-05-08T00:27:45.007Z,0.00
2023-05-08T00:28:45.190Z,0.00
2023-05-08T00:29:45.371Z,0.00
2023-05-08T00:30:45.551Z,0.00
2023-05-08T00:31:45.764Z,0.00
2023-05-08T00:32:45.955Z,0.00
2023-05-08T00:33:46.167Z,0.00
2023-05-08T00:34:46.301Z,0.00
2023-05-08T00:35:46.471Z,0.00
2023-05-08T00:36:46.645Z,0.00
2023-05-08T00:37:46.839Z,0.00
2023-05-08T00:38:47.004Z,0.00
2023-05-08T00:39:47.196Z,0.00
2023-05-08T00:40:47.352Z,0.00
2023-05-08T00:41:47.524Z,0.00
2023-05-08T00:42:47.694Z,0.00
2023-05-08T00:43:47.861Z,0.00
2023-05-08T00:44:48.058Z,0.00
2023-05-08T00:45:48.264Z,0.00
2023-05-08T00:46:48.538Z,0.00
2023-05-08T00:47:48.589Z,0.00
2023-05-08T00:48:48.744Z,0.00
2023-05-08T00:49:48.924Z,0.00
2023-05-08T00:50:49.090Z,0.00
2023-05-08T00:51:49.278Z,0.00
2023-05-08T00:52:49.441Z,0.00
2023-05-08T00:53:49.595Z,0.00
2023-05-08T00:54:49.775Z,0.00
2023-05-08T00:55:49.955Z,0.00
2023-05-08T00:56:50.127Z,0.00
2023-05-08T00:57:50.283Z,0.00
2023-05-08T00:58:50.452Z,0.00
2023-05-08T00:59:50.632Z,0.00
2023-05-08T01:00:50.812Z,0.00
2023-05-08T01:01:50.993Z,0.00
2023-05-08T01:02:51.171Z,0.00
2023-05-08T01:03:51.427Z,0.00
2023-05-08T01:04:51.516Z,0.00
2023-05-08T01:05:51.702Z,0.00
2023-05-08T01:06:51.866Z,0.00
2023-05-08T01:07:52.048Z,0.00
2023-05-08T01:08:52.205Z,0.00
2023-05-08T01:09:52.392Z,0.00
2023-05-08T01:10:52.588Z,0.00
2023-05-08T01:11:52.750Z,0.00
2023-05-08T01:12:52.963Z,0.00
2023-05-08T01:13:53.105Z,0.00
2023-05-08T01:14:53.284Z,0.00
2023-05-08T01:15:53.507Z,0.00
2023-05-08T01:16:53.635Z,0.00
2023-05-08T01:17:53.870Z,0.00
2023-05-08T01:18:54.000Z,0.00
2023-05-08T01:19:54.247Z,0.00
2023-05-08T01:20:54.362Z,0.00
2023-05-08T01:21:54.588Z,0.00
2023-05-08T01:22:54.712Z,0.00
2023-05-08T01:23:54.921Z,0.00
2023-05-08T01:24:55.067Z,0.00
2023-05-08T01:25:55.245Z,0.00
2023-05-08T01:26:55.411Z,0.00
2023-05-08T01:27:55.581Z,0.00
2023-05-08T01:28:55.771Z,0.00
2023-05-08T01:29:55.955Z,0.00
2023-05-08T01:30:56.084Z,0.00
2023-05-08T01:31:56.250Z,0.00
2023-05-08T01:32:56.502Z,0.00
2023-05-08T01:33:56.613Z,0.00
2023-05-08T01:34:56.777Z,0.00
2023-05-08T01:35:56.953Z,0.00
2023-05-08T01:36:57.128Z,0.00
2023-05-08T01:37:57.307Z,0.00
2023-05-08T01:38:57.472Z,0.00
2023-05-08T01:39:57.659Z,0.00
2023-05-08T01:40:57.789Z,0.00
2023-05-08T01:41:57.958Z,0.00
2023-05-08T01:42:58.120Z,0.00
2023-05-08T01:43:58.281Z,0.00
2023-05-08T01:44:58.464Z,0.00
2023-05-08T01:45:58.631Z,0.00
2023-05-08T01:46:58.869Z,0.00
2023-05-08T01:47:58.988Z,0.00
2023-05-08T01:48:59.148Z,0.00
2023-05-08T01:49:59.338Z,0.00
2023-05-08T01:50:59.510Z,0.00
2023-05-08T01:51:59.663Z,0.00
2023-05-08T01:52:59.842Z,0.00
2023-05-08T01:54:00.161Z,0.00
2023-05-08T01:55:00.212Z,0.00
2023-05-08T01:56:00.362Z,0.00
2023-05-08T01:57:00.535Z,0.00
2023-05-08T01:58:00.703Z,0.00
2023-05-08T01:59:00.871Z,0.00
2023-05-08T02:00:01.053Z,0.00
2023-05-08T02:01:01.233Z,0.00
2023-05-08T02:02:01.431Z,0.00
2023-05-08T02:03:01.602Z,0.00
2023-05-08T02:04:01.790Z,0.00
2023-05-08T02:05:01.911Z,0.00
2023-05-08T02:06:02.080Z,0.00
2023-05-08T02:07:02.261Z,0.00
2023-05-08T02:08:02.432Z,0.00
2023-05-08T02:09:02.632Z,0.00
2023-05-08T02:10:02.813Z,0.00
2023-05-08T02:11:03.006Z,0.00
2023-05-08T02:12:03.165Z,0.00
2023-05-08T02:13:03.380Z,0.00
2023-05-08T02:14:03.542Z,0.00
2023-05-08T02:15:03.683Z,0.00
2023-05-08T02:16:03.876Z,0.00
2023-05-08T02:17:04.152Z,0.00
2023-05-08T02:18:04.231Z,0.00
2023-05-08T02:19:04.383Z,0.00
2023-05-08T02:20:04.567Z,0.00
2023-05-08T02:21:04.734Z,0.00
2023-05-08T02:22:04.906Z,0.00
2023-05-08T02:23:05.078Z,0.00
2023-05-08T02:24:05.245Z,0.00
2023-05-08T02:25:05.423Z,0.00
2023-05-08T02:26:05.604Z,0.00
2023-05-08T02:27:05.759Z,0.00
2023-05-08T02:28:05.950Z,0.00
2023-05-08T02:29:06.163Z,0.00
2023-05-08T02:30:06.321Z,0.00
2023-05-08T02:31:06.491Z,0.00
2023-05-08T02:32:06.724Z,0.00
2023-05-08T02:33:06.940Z,0.00
2023-05-08T02:34:07.051Z,0.00
2023-05-08T02:35:07.219Z,0.00
2023-05-08T02:36:07.403Z,0.00
2023-05-08T02:37:07.578Z,0.00
2023-05-08T02:38:07.732Z,0.00
2023-05-08T02:39:07.919Z,0.00
2023-05-08T02:40:08.059Z,0.00
2023-05-08T02:41:08.224Z,0.00
2023-05-08T02:42:08.408Z,0.00
2023-05-08T02:43:08.592Z,0.00
2023-05-08T02:44:08.793Z,0.00
2023-05-08T02:45:08.950Z,0.00
2023-05-08T02:46:09.154Z,4.00
2023-05-08T02:47:09.281Z,4.00
2023-05-08T02:48:09.460Z,4.00
2023-05-08T02:49:09.598Z,0.00
2023-05-08T02:50:09.928Z,4.00
2023-05-08T02:51:09.911Z,4.00
2023-05-08T02:52:10.169Z,4.00
2023-05-08T02:53:10.267Z,4.00
2023-05-08T02:54:10.431Z,8.00
2023-05-08T02:55:10.618Z,4.00
2023-05-08T02:56:10.773Z,4.00
2023-05-08T02:57:10.959Z,12.00
2023-05-08T02:58:11.130Z,8.00
2023-05-08T02:59:11.305Z,12.00
2023-05-08T03:00:11.767Z,16.00
2023-05-08T03:01:11.678Z,16.00
2023-05-08T03:02:11.843Z,16.00
2023-05-08T03:03:12.085Z,20.00
2023-05-08T03:04:12.165Z,24.00
2023-05-08T03:05:12.325Z,28.00
2023-05-08T03:06:12.513Z,28.00
2023-05-08T03:07:12.708Z,36.00
2023-05-08T03:08:12.862Z,40.00
2023-05-08T03:09:13.015Z,44.00
2023-05-08T03:10:13.451Z,48.00
2023-05-08T03:11:13.384Z,56.00
2023-05-08T03:12:13.536Z,64.00
2023-05-08T03:13:13.751Z,72.00
2023-05-08T03:14:13.912Z,76.00
2023-05-08T03:15:14.063Z,88.00
2023-05-08T03:16:14.328Z,92.00
2023-05-08T03:17:14.447Z,104.00
2023-05-08T03:18:14.594Z,116.00
2023-05-08T03:19:14.760Z,124.00
2023-05-08T03:20:15.216Z,136.00
2023-05-08T03:21:15.111Z,152.00
2023-05-08T03:22:15.288Z,164.00
2023-05-08T03:23:15.432Z,180.00
2023-05-08T03:24:15.637Z,192.00
2023-05-08T03:25:15.828Z,212.00
2023-05-08T03:26:16.024Z,228.00
2023-05-08T03:27:16.138Z,244.00
2023-05-08T03:28:16.312Z,264.00
2023-05-08T03:29:16.506Z,288.00
2023-05-08T03:30:16.716Z,308.00
2023-05-08T03:31:16.912Z,332.00
2023-05-08T03:32:17.040Z,356.00
2023-05-08T03:33:17.235Z,380.00
2023-05-08T03:34:17.416Z,408.00
2023-05-08T03:35:17.611Z,432.00
2023-05-08T03:36:17.729Z,460.00
2023-05-08T03:37:17.904Z,488.00
2023-05-08T03:38:18.084Z,520.00
2023-05-08T03:39:18.262Z,560.00
2023-05-08T03:40:18.440Z,604.00
2023-05-08T03:41:18.633Z,676.00
2023-05-08T03:42:18.809Z,748.00
2023-05-08T03:43:18.992Z,824.00
2023-05-08T03:44:19.219Z,936.00
2023-05-08T03:45:19.359Z,1064.00
2023-05-08T03:46:19.589Z,1256.00
2023-05-08T03:47:19.733Z,1336.00
2023-05-08T03:48:19.923Z,1388.00
2023-05-08T03:49:20.081Z,1500.00
2023-05-08T03:50:20.300Z,1676.00
2023-05-08T03:51:20.418Z,1832.00
2023-05-08T03:52:20.597Z,1860.00
2023-05-08T03:53:20.793Z,1980.00
2023-05-08T03:54:20.973Z,1936.00
2023-05-08T03:55:21.157Z,1772.00
2023-05-08T03:56:21.336Z,1692.00
2023-05-08T03:57:21.516Z,1648.00
2023-05-08T03:58:21.720Z,1676.00
2023-05-08T03:59:21.885Z,1692.00
2023-05-08T04:00:22.046Z,1664.00
2023-05-08T04:01:22.215Z,1676.00
2023-05-08T04:02:22.556Z,1664.00
2023-05-08T04:03:22.674Z,1728.00
2023-05-08T04:04:22.735Z,1792.00
2023-05-08T04:05:22.912Z,1684.00
2023-05-08T04:06:23.114Z,1696.00
2023-05-08T04:07:23.300Z,1728.00
2023-05-08T04:08:23.474Z,1772.00
2023-05-08T04:09:23.672Z,1792.00
2023-05-08T04:10:23.815Z,1848.00
2023-05-08T04:11:23.992Z,1972.00
2023-05-08T04:12:24.192Z,2320.00
2023-05-08T04:13:24.398Z,2940.00
2023-05-08T04:14:24.542Z,3296.00
2023-05-08T04:15:24.697Z,3912.00
2023-05-08T04:16:24.950Z,4152.00
2023-05-08T04:17:25.089Z,3776.00
2023-05-08T04:18:25.252Z,3284.00
2023-05-08T04:19:25.392Z,2772.00
2023-05-08T04:20:25.565Z,2412.00
2023-05-08T04:21:25.762Z,2856.00
2023-05-08T04:22:25.932Z,2780.00
2023-05-08T04:23:26.099Z,2272.00
2023-05-08T04:24:26.263Z,2244.00
2023-05-08T04:25:26.447Z,2340.00
2023-05-08T04:26:26.595Z,2512.00
2023-05-08T04:27:26.755Z,3232.00
2023-05-08T04:28:26.950Z,3748.00
2023-05-08T04:29:27.119Z,3296.00
2023-05-08T04:30:27.342Z,3744.00
2023-05-08T04:31:27.501Z,3412.00
2023-05-08T04:32:27.664Z,2812.00
2023-05-08T04:33:27.851Z,2532.00
2023-05-08T04:34:27.977Z,2788.00
2023-05-08T04:35:28.174Z,2860.00
2023-05-08T04:36:28.318Z,2704.00
2023-05-08T04:37:28.493Z,2644.00
2023-05-08T04:38:28.705Z,2688.00
2023-05-08T04:39:28.868Z,2864.00
2023-05-08T04:40:29.078Z,3064.00
2023-05-08T04:41:29.284Z,3072.00
2023-05-08T04:42:29.408Z,3084.00
2023-05-08T04:43:29.585Z,3020.00
2023-05-08T04:44:29.803Z,3144.00
2023-05-08T04:45:29.994Z,3164.00
2023-05-08T04:46:30.175Z,3112.00
2023-05-08T04:47:30.347Z,3364.00
2023-05-08T04:48:30.447Z,3800.00
2023-05-08T04:49:30.671Z,4264.00
2023-05-08T04:50:30.764Z,5028.00
2023-05-08T04:51:30.921Z,5280.00
2023-05-08T04:52:31.098Z,5668.00
2023-05-08T04:53:31.292Z,6224.00
2023-05-08T04:54:31.487Z,7092.00
2023-05-08T04:55:31.659Z,5776.00
2023-05-08T04:56:31.804Z,4280.00
2023-05-08T04:57:31.983Z,3996.00
2023-05-08T04:58:32.176Z,4376.00
2023-05-08T04:59:32.336Z,3976.00
2023-05-08T05:00:32.496Z,3608.00
2023-05-08T05:01:32.718Z,3500.00
2023-05-08T05:02:32.939Z,3604.00
2023-05-08T05:03:33.024Z,3812.00
2023-05-08T05:04:33.165Z,4052.00
2023-05-08T05:05:33.332Z,4220.00
2023-05-08T05:06:33.504Z,4852.00
2023-05-08T05:07:33.656Z,5144.00
2023-05-08T05:08:33.856Z,4944.00
2023-05-08T05:09:34.011Z,5476.00
2023-05-08T05:10:34.198Z,6152.00
2023-05-08T05:11:34.382Z,6692.00
2023-05-08T05:12:34.570Z,6828.00
2023-05-08T05:13:34.767Z,6884.00
2023-05-08T05:14:34.909Z,7672.00
2023-05-08T05:15:35.094Z,8960.00
2023-05-08T05:16:35.394Z,9696.00
2023-05-08T05:17:35.525Z,8888.00
2023-05-08T05:18:35.666Z,8232.00
2023-05-08T05:19:35.815Z,8308.00
2023-05-08T05:20:36.007Z,9976.00
2023-05-08T05:21:36.182Z,12580.00
2023-05-08T05:22:36.356Z,13664.00
2023-05-08T05:23:36.578Z,14276.00
2023-05-08T05:24:36.704Z,14660.00
2023-05-08T05:25:36.877Z,15172.00
2023-05-08T05:26:37.071Z,16160.00
2023-05-08T05:27:37.237Z,17312.00
2023-05-08T05:28:37.388Z,18080.00
2023-05-08T05:29:37.567Z,18816.00
2023-05-08T05:30:37.721Z,19648.00
2023-05-08T05:31:37.964Z,20544.00
2023-05-08T05:32:38.114Z,21376.00
2023-05-08T05:33:38.283Z,21792.00
2023-05-08T05:34:38.429Z,22528.00
2023-05-08T05:35:38.598Z,22624.00
2023-05-08T05:36:38.755Z,22560.00
2023-05-08T05:37:38.931Z,22752.00
2023-05-08T05:38:39.114Z,23360.00
2023-05-08T05:39:39.303Z,23776.00
2023-05-08T05:40:39.476Z,23776.00
2023-05-08T05:41:39.624Z,23808.00
2023-05-08T05:42:39.801Z,23200.00
2023-05-08T05:43:39.990Z,22688.00
2023-05-08T05:44:40.177Z,22240.00
2023-05-08T05:45:40.374Z,21248.00
2023-05-08T05:46:42.788Z,19424.00
2023-05-08T05:47:40.753Z,17952.00
2023-05-08T05:48:40.863Z,17184.00
2023-05-08T05:49:41.106Z,14936.00
2023-05-08T05:50:41.251Z,16256.00
2023-05-08T05:51:41.407Z,17120.00
2023-05-08T05:52:41.587Z,17216.00
2023-05-08T05:53:41.748Z,17248.00
2023-05-08T05:54:41.946Z,17568.00
2023-05-08T05:55:42.107Z,17984.00
2023-05-08T05:56:42.268Z,19392.00
2023-05-08T05:57:42.443Z,21344.00
2023-05-08T05:58:42.643Z,23360.00
2023-05-08T05:59:42.843Z,24448.00
2023-05-08T06:00:42.955Z,24896.00
2023-05-08T06:01:43.198Z,25440.00
2023-05-08T06:02:43.410Z,25792.00
2023-05-08T06:03:43.601Z,25888.00
2023-05-08T06:04:43.829Z,25984.00
2023-05-08T06:05:43.860Z,25760.00
2023-05-08T06:06:44.014Z,25408.00
2023-05-08T06:07:44.209Z,24736.00
2023-05-08T06:08:44.385Z,23776.00
2023-05-08T06:09:44.559Z,23040.00
2023-05-08T06:10:44.725Z,22272.00
2023-05-08T06:11:44.891Z,21504.00
2023-05-08T06:12:45.088Z,20928.00
2023-05-08T06:13:45.245Z,20544.00
2023-05-08T06:14:45.401Z,20480.00
2023-05-08T06:15:45.595Z,20512.00
2023-05-08T06:16:45.771Z,20832.00
2023-05-08T06:17:45.992Z,21312.00
2023-05-08T06:18:46.114Z,21760.00
2023-05-08T06:19:46.284Z,22144.00
2023-05-08T06:20:46.510Z,22656.00
2023-05-08T06:21:46.631Z,23424.00
2023-05-08T06:22:46.879Z,24352.00
2023-05-08T06:23:47.018Z,25248.00
2023-05-08T06:24:47.172Z,26080.00
2023-05-08T06:25:47.360Z,26560.00
2023-05-08T06:26:47.503Z,26944.00
2023-05-08T06:27:47.724Z,27168.00
2023-05-08T06:28:47.828Z,27616.00
2023-05-08T06:29:48.016Z,28064.00
2023-05-08T06:30:48.219Z,28224.00
2023-05-08T06:31:48.380Z,28384.00
2023-05-08T06:32:48.612Z,27456.00
2023-05-08T06:33:48.723Z,26336.00
2023-05-08T06:34:48.902Z,25248.00
2023-05-08T06:35:49.097Z,24832.00
2023-05-08T06:36:49.319Z,24736.00
2023-05-08T06:37:49.448Z,24544.00
2023-05-08T06:38:49.591Z,24768.00
2023-05-08T06:39:57.265Z,24992.00
2023-05-08T06:40:50.950Z,25248.00
2023-05-08T06:41:50.117Z,25760.00
2023-05-08T06:42:50.265Z,26464.00
2023-05-08T06:43:50.457Z,25376.00
2023-05-08T06:44:50.617Z,26336.00
2023-05-08T06:45:50.847Z,25760.00
2023-05-08T06:46:51.037Z,25600.00
2023-05-08T06:47:51.150Z,24512.00
2023-05-08T06:48:51.297Z,24992.00
2023-05-08T06:49:51.465Z,27424.00
2023-05-08T06:50:51.636Z,26912.00
2023-05-08T06:51:51.805Z,29024.00
2023-05-08T06:52:51.976Z,28960.00
2023-05-08T06:53:52.189Z,28384.00
2023-05-08T06:54:52.384Z,28192.00
2023-05-08T06:55:52.497Z,28448.00
2023-05-08T06:56:52.803Z,28448.00
2023-05-08T06:57:52.830Z,28320.00
2023-05-08T06:59:04.492Z,27904.00
2023-05-08T06:59:54.234Z,27232.00
2023-05-08T07:00:53.357Z,26880.00
2023-05-08T07:01:53.539Z,27008.00
2023-05-08T07:02:53.769Z,27072.00
2023-05-08T07:03:53.879Z,26944.00
2023-05-08T07:04:54.122Z,25664.00
2023-05-08T07:05:54.279Z,24000.00
2023-05-08T07:06:54.413Z,22880.00
2023-05-08T07:07:54.587Z,22304.00
2023-05-08T07:08:54.781Z,22016.00
2023-05-08T07:09:54.944Z,22016.00
2023-05-08T07:10:55.098Z,22208.00
2023-05-08T07:11:55.306Z,22176.00
2023-05-08T07:12:55.470Z,21856.00
2023-05-08T07:13:55.662Z,21760.00
2023-05-08T07:14:57.260Z,21984.00
2023-05-08T07:15:56.059Z,22432.00
2023-05-08T07:16:56.282Z,23136.00
2023-05-08T07:17:56.351Z,23936.00
2023-05-08T07:18:56.525Z,25056.00
2023-05-08T07:19:56.683Z,25600.00
2023-05-08T07:20:56.846Z,25280.00
2023-05-08T07:21:57.070Z,25440.00
2023-05-08T07:22:57.274Z,25824.00
2023-05-08T07:23:57.396Z,25984.00
2023-05-08T07:24:57.556Z,25088.00
2023-05-08T07:25:57.766Z,24576.00
2023-05-08T07:26:57.917Z,24832.00
2023-05-08T07:28:00.483Z,25408.00
2023-05-08T07:28:58.246Z,25952.00
2023-05-08T07:29:58.417Z,24896.00
2023-05-08T07:30:58.589Z,26880.00
2023-05-08T07:31:58.845Z,25056.00
2023-05-08T07:32:59.053Z,24960.00
2023-05-08T07:33:59.143Z,26208.00
2023-05-08T07:34:59.323Z,26016.00
2023-05-08T07:35:59.493Z,25344.00
2023-05-08T07:36:59.703Z,27136.00
2023-05-08T07:37:59.876Z,27968.00
2023-05-08T07:39:00.014Z,28768.00
2023-05-08T07:40:00.179Z,29568.00
2023-05-08T07:41:00.421Z,30144.00
2023-05-08T07:42:00.571Z,31872.00
2023-05-08T07:43:00.726Z,33952.00
2023-05-08T07:44:00.880Z,35264.00
2023-05-08T07:45:01.103Z,38400.00
2023-05-08T07:46:01.273Z,39712.00
2023-05-08T07:47:01.463Z,41216.00
2023-05-08T07:48:01.637Z,41312.00
2023-05-08T07:49:01.743Z,40512.00
2023-05-08T07:50:01.903Z,42400.00
2023-05-08T07:51:02.094Z,42976.00
2023-05-08T07:52:02.252Z,44096.00
2023-05-08T07:53:02.421Z,44928.00
2023-05-08T07:54:02.610Z,48128.00
2023-05-08T07:55:02.780Z,47136.00
2023-05-08T07:56:02.978Z,45568.00
2023-05-08T07:57:03.123Z,46752.00
2023-05-08T07:58:03.284Z,48256.00
2023-05-08T07:59:03.443Z,48096.00
2023-05-08T08:00:03.681Z,49408.00
2023-05-08T08:01:03.839Z,47936.00
2023-05-08T08:02:03.992Z,45600.00
2023-05-08T08:03:04.202Z,45408.00
2023-05-08T08:04:04.398Z,44416.00
2023-05-08T08:05:04.530Z,41888.00
2023-05-08T08:06:04.703Z,44736.00
2023-05-08T08:07:04.870Z,46624.00
2023-05-08T08:08:05.081Z,45952.00
2023-05-08T08:09:05.233Z,46080.00
2023-05-08T08:10:05.427Z,46784.00
2023-05-08T08:11:05.598Z,46624.00
2023-05-08T08:12:05.822Z,48192.00
2023-05-08T08:13:06.027Z,48992.00
2023-05-08T08:14:06.160Z,48576.00
2023-05-08T08:15:06.336Z,49088.00
2023-05-08T08:16:06.479Z,48512.00
2023-05-08T08:17:06.730Z,45056.00
2023-05-08T08:18:06.880Z,46208.00
2023-05-08T08:19:07.007Z,48160.00
2023-05-08T08:20:07.210Z,44448.00
2023-05-08T08:21:07.314Z,44000.00
2023-05-08T08:22:07.502Z,43904.00
2023-05-08T08:23:07.688Z,45344.00
2023-05-08T08:24:07.893Z,48000.00
2023-05-08T08:25:08.033Z,51072.00
2023-05-08T08:26:08.246Z,54752.00
2023-05-08T08:27:08.392Z,59616.00
2023-05-08T08:28:08.612Z,60832.00
2023-05-08T08:29:08.789Z,61248.00
2023-05-08T08:30:17.648Z,66720.00
2023-05-08T08:31:10.155Z,65312.00
2023-05-08T08:32:09.314Z,63168.00
2023-05-08T08:33:09.535Z,65440.00
2023-05-08T08:34:09.674Z,60896.00
2023-05-08T08:35:09.846Z,53984.00
2023-05-08T08:36:10.039Z,55424.00
2023-05-08T08:37:10.195Z,50304.00
2023-05-08T08:38:10.434Z,35552.00
2023-05-08T08:39:12.493Z,28096.00
2023-05-08T08:40:10.747Z,23744.00
2023-05-08T08:41:10.891Z,20192.00
2023-05-08T08:42:11.161Z,17504.00
2023-05-08T08:43:11.294Z,16444.00
2023-05-08T08:44:11.429Z,15660.00
2023-05-08T08:45:11.843Z,14988.00
2023-05-08T08:46:11.817Z,15028.00
2023-05-08T08:47:11.982Z,15048.00
2023-05-08T08:48:12.179Z,15004.00
2023-05-08T08:49:12.305Z,15204.00
2023-05-08T08:50:14.428Z,15332.00
2023-05-08T08:51:12.657Z,15304.00
2023-05-08T08:52:12.859Z,16040.00
2023-05-08T08:53:13.052Z,19392.00
2023-05-08T08:54:13.217Z,26816.00
2023-05-08T08:55:13.581Z,40032.00
2023-05-08T08:56:13.552Z,49120.00
2023-05-08T08:57:13.751Z,50432.00
2023-05-08T08:58:13.930Z,51648.00
2023-05-08T08:59:14.101Z,55712.00
2023-05-08T09:00:14.296Z,65760.00
2023-05-08T09:01:14.445Z,67776.00
2023-05-08T09:02:14.691Z,65216.00
2023-05-08T09:03:14.931Z,60416.00
2023-05-08T09:04:15.020Z,56448.00
2023-05-08T09:05:15.381Z,56960.00
2023-05-08T09:06:15.384Z,57824.00
2023-05-08T09:07:15.530Z,63360.00
2023-05-08T09:08:15.749Z,62336.00
2023-05-08T09:09:15.909Z,58336.00
2023-05-08T09:10:16.088Z,59872.00
2023-05-08T09:11:16.271Z,60512.00
2023-05-08T09:12:16.506Z,59968.00
2023-05-08T09:13:18.851Z,57920.00
2023-05-08T09:14:16.786Z,55008.00
2023-05-08T09:15:17.009Z,56160.00
2023-05-08T09:16:17.210Z,59168.00
2023-05-08T09:17:17.334Z,62144.00
2023-05-08T09:18:17.543Z,65088.00
2023-05-08T09:19:17.696Z,66592.00
2023-05-08T09:20:17.899Z,66368.00
2023-05-08T09:21:18.081Z,64512.00
2023-05-08T09:22:18.246Z,66432.00
2023-05-08T09:23:18.387Z,67328.00
2023-05-08T09:24:18.572Z,66112.00
2023-05-08T09:25:18.744Z,63072.00
2023-05-08T09:26:18.911Z,60832.00
2023-05-08T09:27:19.074Z,62752.00
2023-05-08T09:28:19.238Z,67872.00
2023-05-08T09:29:19.412Z,70784.00
2023-05-08T09:30:19.654Z,70528.00
2023-05-08T09:31:19.753Z,71488.00
2023-05-08T09:32:20.012Z,70848.00
2023-05-08T09:33:20.099Z,70816.00
2023-05-08T09:34:20.276Z,69952.00
2023-05-08T09:35:20.426Z,71392.00
2023-05-08T09:36:20.603Z,65536.00
2023-05-08T09:37:20.830Z,64864.00
2023-05-08T09:38:20.951Z,68864.00
2023-05-08T09:39:21.192Z,59680.00
2023-05-08T09:40:21.642Z,51520.00
2023-05-08T09:41:21.482Z,68384.00
2023-05-08T09:42:21.681Z,47520.00
2023-05-08T09:43:21.861Z,55072.00
2023-05-08T09:44:22.032Z,62304.00
2023-05-08T09:45:22.213Z,61536.00
2023-05-08T09:46:22.510Z,40288.00
2023-05-08T09:47:22.661Z,40064.00
2023-05-08T09:48:22.723Z,61824.00
2023-05-08T09:49:22.895Z,62336.00
2023-05-08T09:50:23.056Z,63168.00
2023-05-08T09:51:23.271Z,70080.00
2023-05-08T09:52:23.415Z,77920.00
2023-05-08T09:53:23.629Z,80032.00
2023-05-08T09:54:23.800Z,83424.00
2023-05-08T09:55:23.979Z,80960.00
2023-05-08T09:56:24.132Z,78592.00
2023-05-08T09:57:24.346Z,76000.00
2023-05-08T09:58:24.528Z,82816.00
2023-05-08T09:59:24.681Z,84224.00
2023-05-08T10:00:24.861Z,78624.00
2023-05-08T10:01:25.064Z,81024.00
2023-05-08T10:02:25.231Z,80064.00
2023-05-08T10:03:25.418Z,77696.00
2023-05-08T10:04:25.552Z,78592.00
2023-05-08T10:05:25.774Z,85568.00
2023-05-08T10:06:25.920Z,97376.00
2023-05-08T10:07:26.070Z,95264.00
2023-05-08T10:08:26.267Z,81760.00
2023-05-08T10:09:28.900Z,82656.00
2023-05-08T10:10:27.619Z,78912.00
2023-05-08T10:11:26.777Z,65792.00
2023-05-08T10:12:26.930Z,61280.00
2023-05-08T10:13:27.170Z,56128.00
2023-05-08T10:14:27.303Z,48928.00
2023-05-08T10:15:27.496Z,50528.00
2023-05-08T10:16:27.718Z,35488.00
2023-05-08T10:17:27.872Z,10500.00
2023-05-08T10:18:27.978Z,5632.00
2023-05-08T10:19:28.180Z,5156.00
2023-05-08T10:20:28.357Z,5040.00
2023-05-08T10:21:28.511Z,4964.00
2023-05-08T10:22:28.692Z,4964.00
2023-05-08T10:23:28.878Z,4912.00
2023-05-08T10:24:29.052Z,4832.00
2023-05-08T10:25:29.260Z,4892.00
2023-05-08T10:26:29.381Z,4944.00
2023-05-08T10:27:29.581Z,4928.00
2023-05-08T10:28:29.738Z,4892.00
2023-05-08T10:29:29.947Z,4880.00
2023-05-08T10:30:30.085Z,4928.00
2023-05-08T10:31:30.301Z,4912.00
2023-05-08T10:32:30.429Z,4876.00
2023-05-08T10:33:31.170Z,4912.00
2023-05-08T10:34:30.754Z,4916.00
2023-05-08T10:35:30.915Z,4920.00
2023-05-08T10:36:31.201Z,4920.00
2023-05-08T10:37:31.272Z,4920.00
2023-05-08T10:38:31.415Z,4904.00
2023-05-08T10:39:31.596Z,4892.00
2023-05-08T10:40:31.805Z,4872.00
2023-05-08T10:41:31.973Z,4856.00
2023-05-08T10:42:32.171Z,4852.00
2023-05-08T10:43:32.304Z,4812.00
2023-05-08T10:44:32.470Z,4776.00
2023-05-08T10:45:32.646Z,4736.00
2023-05-08T10:46:32.852Z,4752.00
2023-05-08T10:47:32.998Z,4764.00
2023-05-08T10:48:33.184Z,4768.00
2023-05-08T10:49:33.380Z,4752.00
2023-05-08T10:50:33.519Z,4732.00
2023-05-08T10:51:33.683Z,4708.00
2023-05-08T10:52:33.861Z,4660.00
2023-05-08T10:53:34.066Z,4612.00
2023-05-08T10:54:34.219Z,4604.00
2023-05-08T10:55:34.401Z,4564.00
2023-05-08T10:56:34.596Z,4556.00
2023-05-08T10:57:34.769Z,4564.00
2023-05-08T10:58:34.934Z,4580.00
2023-05-08T10:59:35.097Z,4572.00
2023-05-08T11:00:35.260Z,4580.00
2023-05-08T11:01:35.475Z,4568.00
2023-05-08T11:02:35.721Z,4572.00
2023-05-08T11:03:35.858Z,4596.00
2023-05-08T11:04:36.099Z,4580.00
2023-05-08T11:05:36.157Z,4556.00
2023-05-08T11:06:36.308Z,4564.00
2023-05-08T11:07:36.612Z,4568.00
2023-05-08T11:08:36.685Z,4544.00
2023-05-08T11:09:36.842Z,4536.00
2023-05-08T11:10:37.118Z,4504.00
2023-05-08T11:11:37.206Z,4492.00
2023-05-08T11:12:37.446Z,4484.00
2023-05-08T11:13:37.526Z,4468.00
2023-05-08T11:14:37.684Z,4460.00
2023-05-08T11:15:37.872Z,4444.00
2023-05-08T11:16:38.084Z,4452.00
2023-05-08T11:17:38.240Z,4432.00
2023-05-08T11:18:49.196Z,4404.00
2023-05-08T11:19:39.612Z,4372.00
2023-05-08T11:20:38.712Z,4376.00
2023-05-08T11:21:38.917Z,4376.00
2023-05-08T11:22:39.084Z,4344.00
2023-05-08T11:23:39.266Z,4312.00
2023-05-08T11:24:39.448Z,4292.00
2023-05-08T11:25:39.605Z,4288.00
2023-05-08T11:26:39.784Z,4284.00
2023-05-08T11:27:39.969Z,4268.00
2023-05-08T11:28:40.147Z,4224.00
2023-05-08T11:29:40.301Z,4224.00
2023-05-08T11:30:40.518Z,4188.00
2023-05-08T11:31:40.697Z,4184.00
2023-05-08T11:32:40.865Z,4180.00
2023-05-08T11:33:41.027Z,4172.00
2023-05-08T11:34:41.186Z,4148.00
2023-05-08T11:35:41.357Z,4132.00
2023-05-08T11:36:41.492Z,4120.00
2023-05-08T11:37:41.676Z,4116.00
2023-05-08T11:38:41.882Z,4100.00
2023-05-08T11:39:42.067Z,4104.00
2023-05-08T11:40:42.253Z,4096.00
2023-05-08T11:41:42.433Z,4096.00
2023-05-08T11:42:42.607Z,4056.00
2023-05-08T11:43:42.765Z,4048.00
2023-05-08T11:44:42.955Z,4028.00
2023-05-08T11:45:43.102Z,4028.00
2023-05-08T11:46:43.356Z,4024.00
2023-05-08T11:47:43.477Z,4020.00
2023-05-08T11:48:43.633Z,4008.00
2023-05-08T11:49:43.813Z,4004.00
2023-05-08T11:50:43.960Z,3984.00
2023-05-08T11:51:44.178Z,3984.00
2023-05-08T11:52:44.367Z,3956.00
2023-05-08T11:53:44.502Z,3924.00
2023-05-08T11:54:44.701Z,3908.00
2023-05-08T11:55:44.869Z,3904.00
2023-05-08T11:56:47.565Z,3896.00
2023-05-08T11:57:45.258Z,3880.00
2023-05-08T11:58:45.420Z,3872.00
2023-05-08T11:59:45.597Z,3856.00
2023-05-08T12:00:45.776Z,3852.00
2023-05-08T12:01:53.619Z,3840.00
2023-05-08T12:02:47.193Z,3816.00
2023-05-08T12:03:46.458Z,3792.00
2023-05-08T12:04:46.949Z,3800.00
2023-05-08T12:05:46.680Z,3788.00
2023-05-08T12:06:46.820Z,3796.00
2023-05-08T12:07:47.216Z,3792.00
2023-05-08T12:08:47.194Z,3780.00
2023-05-08T12:09:47.353Z,3776.00
2023-05-08T12:10:47.536Z,3760.00
2023-05-08T12:11:47.711Z,3752.00
2023-05-08T12:12:47.941Z,3732.00
2023-05-08T12:13:48.064Z,3728.00
2023-05-08T12:14:48.217Z,3712.00
2023-05-08T12:15:48.398Z,3700.00
2023-05-08T12:16:48.599Z,3704.00